createdAt,value
2022-09-22T00:00:31.155Z,11.70
2022-09-22T00:03:01.350Z,14.13
2022-09-22T00:05:29.950Z,12.40
2022-09-22T00:07:58.745Z,13.98
2022-09-22T00:10:29.196Z,11.18
2022-09-22T00:13:00.088Z,10.45
2022-09-22T00:15:30.487Z,11.80
2022-09-22T00:18:00.407Z,9.95
2022-09-22T00:20:29.341Z,15.00
2022-09-22T00:22:58.101Z,18.08
2022-09-22T00:25:34.175Z,10.38
2022-09-22T00:28:07.646Z,12.55
2022-09-22T00:30:43.202Z,12.73
2022-09-22T00:33:13.030Z,11.95
2022-09-22T00:35:42.298Z,13.70
2022-09-22T00:38:16.037Z,10.13
2022-09-22T00:40:45.047Z,12.10
2022-09-22T00:43:22.604Z,15.55
2022-09-22T00:45:56.337Z,12.35
2022-09-22T00:48:31.009Z,9.20
2022-09-22T00:51:04.529Z,15.60
2022-09-22T00:53:33.743Z,10.00
2022-09-22T00:56:12.639Z,19.23
2022-09-22T00:58:47.171Z,12.98
2022-09-22T01:01:19.374Z,15.60
2022-09-22T01:03:49.172Z,9.35
2022-09-22T01:06:24.889Z,25.75
2022-09-22T01:08:58.420Z,11.90
2022-09-22T01:11:30.056Z,14.90
2022-09-22T01:14:13.230Z,17.05
2022-09-22T01:16:55.073Z,9.02
2022-09-22T01:20:06.907Z,12.38
2022-09-22T01:23:06.993Z,14.07
2022-09-22T01:26:22.518Z,13.45
2022-09-22T01:29:24.427Z,13.30
2022-09-22T01:32:02.756Z,11.65
2022-09-22T01:34:40.058Z,16.63
2022-09-22T01:37:16.575Z,14.13
2022-09-22T01:39:52.032Z,24.90
2022-09-22T01:42:33.928Z,16.88
2022-09-22T01:45:10.740Z,14.18
2022-09-22T01:47:51.387Z,12.23
2022-09-22T01:50:25.241Z,16.95
2022-09-22T01:52:57.298Z,16.15
2022-09-22T01:55:31.410Z,13.18
2022-09-22T01:58:05.262Z,16.27
2022-09-22T02:00:36.904Z,12.35
2022-09-22T02:03:13.008Z,13.57
2022-09-22T02:05:49.746Z,16.65
2022-09-22T02:08:28.017Z,14.63
2022-09-22T02:10:59.466Z,15.73
2022-09-22T02:13:28.687Z,16.73
2022-09-22T02:16:04.111Z,13.55
2022-09-22T02:18:44.975Z,11.55
2022-09-22T02:21:15.256Z,15.07
2022-09-22T02:23:45.627Z,14.43
2022-09-22T02:26:23.831Z,12.82
2022-09-22T02:28:59.962Z,11.52
2022-09-22T02:31:32.516Z,14.32
2022-09-22T02:34:05.391Z,15.30
2022-09-22T02:36:57.645Z,15.68
2022-09-22T02:39:35.759Z,12.88
2022-09-22T02:42:27.811Z,14.20
2022-09-22T02:45:08.474Z,16.30
2022-09-22T02:47:44.604Z,17.58
2022-09-22T02:50:18.389Z,12.30
2022-09-22T02:52:54.286Z,14.82
2022-09-22T02:55:27.033Z,15.65
2022-09-22T02:57:55.715Z,14.27
2022-09-22T03:00:25.667Z,14.90
2022-09-22T03:02:54.777Z,15.18
2022-09-22T03:05:25.145Z,19.83
2022-09-22T03:07:53.993Z,15.00
2022-09-22T03:10:24.152Z,13.15
2022-09-22T03:13:14.853Z,23.80
2022-09-22T03:15:42.473Z,24.10
2022-09-22T03:18:12.978Z,22.13
2022-09-22T03:20:44.302Z,13.25
2022-09-22T03:23:20.957Z,15.95
2022-09-22T03:25:50.150Z,19.05
2022-09-22T03:28:20.902Z,15.38
2022-09-22T03:30:51.881Z,14.50
2022-09-22T03:33:21.020Z,18.80
2022-09-22T03:35:52.232Z,16.55
2022-09-22T03:38:23.987Z,17.40
2022-09-22T03:40:54.343Z,16.65
2022-09-22T03:43:23.123Z,14.55
2022-09-22T03:45:58.637Z,19.33
2022-09-22T03:48:28.712Z,21.77
2022-09-22T03:50:59.801Z,19.17
2022-09-22T03:53:28.857Z,13.45
2022-09-22T03:56:08.021Z,16.02
2022-09-22T03:58:39.200Z,15.63
2022-09-22T04:01:08.989Z,15.07
2022-09-22T04:03:38.925Z,16.50
2022-09-22T04:06:13.206Z,13.73
2022-09-22T04:08:41.794Z,15.30
2022-09-22T04:11:10.515Z,20.25
2022-09-22T04:13:43.992Z,14.05
2022-09-22T04:16:15.174Z,18.58
2022-09-22T04:18:44.082Z,16.15
2022-09-22T04:21:14.980Z,14.05
2022-09-22T04:23:44.616Z,14.55
2022-09-22T04:26:13.684Z,21.95
2022-09-22T04:28:42.153Z,13.57
2022-09-22T04:31:12.006Z,13.75
2022-09-22T04:33:41.823Z,22.73
2022-09-22T04:36:10.629Z,18.45
2022-09-22T04:38:41.500Z,15.52
2022-09-22T04:41:10.041Z,17.02
2022-09-22T04:43:43.308Z,17.48
2022-09-22T04:46:15.491Z,16.33
2022-09-22T04:48:46.432Z,15.23
2022-09-22T04:51:15.652Z,23.55
2022-09-22T04:53:48.187Z,15.85
2022-09-22T04:56:18.793Z,19.95
2022-09-22T04:58:49.205Z,19.50
2022-09-22T05:01:19.934Z,19.52
2022-09-22T05:03:49.501Z,17.33
2022-09-22T05:06:19.839Z,20.42
2022-09-22T05:08:59.656Z,15.65
2022-09-22T05:11:30.285Z,19.95
2022-09-22T05:13:59.982Z,15.98
2022-09-22T05:16:29.557Z,16.13
2022-09-22T05:18:59.327Z,16.50
2022-09-22T05:21:32.767Z,14.50
2022-09-22T05:24:03.749Z,18.40
2022-09-22T05:26:34.780Z,15.52
2022-09-22T05:29:03.564Z,18.75
2022-09-22T05:31:32.319Z,24.63
2022-09-22T05:34:02.712Z,16.40
2022-09-22T05:36:32.281Z,26.52
2022-09-22T05:39:03.236Z,23.80
2022-09-22T05:41:39.083Z,20.85
2022-09-22T05:44:10.372Z,24.33
2022-09-22T05:46:39.206Z,21.33
2022-09-22T05:49:08.332Z,26.77
2022-09-22T05:51:38.184Z,22.17
2022-09-22T05:54:11.809Z,20.48
2022-09-22T05:56:43.237Z,26.70
2022-09-22T05:59:20.890Z,17.95
2022-09-22T06:04:32.767Z,22.65
2022-09-22T06:07:06.301Z,26.67
2022-09-22T06:09:38.215Z,18.63
2022-09-22T06:12:08.879Z,26.30
2022-09-22T06:14:40.246Z,24.08
2022-09-22T06:17:12.100Z,26.65
2022-09-22T06:19:43.294Z,22.33
2022-09-22T06:22:12.905Z,23.30
2022-09-22T06:24:43.304Z,25.02
2022-09-22T06:27:12.533Z,22.33
2022-09-22T06:29:43.369Z,30.08
2022-09-22T06:32:14.728Z,29.92
2022-09-22T06:34:44.714Z,30.38
2022-09-22T06:37:13.236Z,26.17
2022-09-22T06:39:44.873Z,30.80
2022-09-22T06:42:15.493Z,26.08
2022-09-22T06:44:44.560Z,28.85
2022-09-22T06:47:13.309Z,45.50
2022-09-22T06:49:42.847Z,43.13
2022-09-22T06:52:15.007Z,65.60
2022-09-22T06:54:53.128Z,39.53
2022-09-22T06:57:28.381Z,35.45
2022-09-22T06:59:57.974Z,56.03
2022-09-22T07:02:29.153Z,26.38
2022-09-22T07:04:59.155Z,22.73
2022-09-22T07:07:29.144Z,17.58
2022-09-22T07:10:00.932Z,22.92
2022-09-22T07:12:30.509Z,16.33
2022-09-22T07:14:59.532Z,16.45
2022-09-22T07:17:32.711Z,16.50
2022-09-22T07:20:01.640Z,24.00
2022-09-22T07:22:31.217Z,15.35
2022-09-22T07:25:02.257Z,18.65
2022-09-22T07:27:33.696Z,15.90
2022-09-22T07:30:10.276Z,27.20
2022-09-22T07:32:39.045Z,18.27
2022-09-22T07:35:09.324Z,16.45
2022-09-22T07:37:41.006Z,17.67
2022-09-22T07:40:12.268Z,18.02
2022-09-22T07:42:41.627Z,14.55
2022-09-22T07:45:27.058Z,15.57
2022-09-22T07:48:28.542Z,15.20
2022-09-22T07:51:01.292Z,13.50
2022-09-22T07:53:31.515Z,11.40
2022-09-22T07:56:07.749Z,20.60
2022-09-22T07:58:38.333Z,14.02
2022-09-22T08:01:11.046Z,16.17
2022-09-22T08:03:41.807Z,13.27
2022-09-22T08:06:12.483Z,19.45
2022-09-22T08:08:43.995Z,13.80
2022-09-22T08:11:18.597Z,18.27
2022-09-22T08:13:56.109Z,22.77
2022-09-22T08:16:30.660Z,19.60
2022-09-22T08:19:12.214Z,21.08
2022-09-22T08:21:48.377Z,14.77
2022-09-22T08:24:24.823Z,16.38
2022-09-22T08:26:56.443Z,16.63
2022-09-22T08:29:25.709Z,20.00
2022-09-22T08:31:56.786Z,17.45
2022-09-22T08:34:32.718Z,16.85
2022-09-22T08:37:03.360Z,13.77
2022-09-22T08:39:33.311Z,13.40
2022-09-22T08:42:12.344Z,15.45
2022-09-22T08:44:53.268Z,15.90
2022-09-22T08:47:41.209Z,13.23
2022-09-22T08:50:44.686Z,14.30
2022-09-22T08:53:26.342Z,11.45
2022-09-22T08:56:07.239Z,13.13
2022-09-22T08:58:50.265Z,11.13
2022-09-22T09:01:51.609Z,13.57
2022-09-22T09:04:58.184Z,11.23
2022-09-22T09:10:23.560Z,11.57
2022-09-22T09:13:17.043Z,8.02
2022-09-22T09:16:06.747Z,11.13
2022-09-22T09:18:42.584Z,10.43
2022-09-22T09:21:18.632Z,7.97
2022-09-22T09:26:42.541Z,11.07
2022-09-22T09:29:22.439Z,12.50
2022-09-22T09:31:57.241Z,15.98
2022-09-22T09:34:30.198Z,14.93
2022-09-22T09:37:12.362Z,11.80
2022-09-22T09:39:45.783Z,12.68
2022-09-22T09:42:25.028Z,12.02
2022-09-22T09:45:02.697Z,13.52
2022-09-22T09:48:01.944Z,11.68
2022-09-22T09:50:32.539Z,8.98
2022-09-22T09:53:02.500Z,11.48
2022-09-22T09:55:36.081Z,8.30
2022-09-22T09:58:36.497Z,11.40
2022-09-22T10:01:07.649Z,6.22
2022-09-22T10:03:54.793Z,12.52
2022-09-22T10:06:29.299Z,10.25
2022-09-22T10:09:03.477Z,11.07
2022-09-22T10:11:38.715Z,7.13
2022-09-22T10:14:21.340Z,9.45
2022-09-22T10:16:53.534Z,13.50
2022-09-22T10:19:32.242Z,9.90
2022-09-22T10:22:28.874Z,7.90
2022-09-22T10:25:06.484Z,12.02
2022-09-22T10:28:02.747Z,10.80
2022-09-22T10:30:40.838Z,9.15
2022-09-22T10:33:20.883Z,11.27
2022-09-22T10:36:11.035Z,10.23
2022-09-22T10:39:09.743Z,11.38
2022-09-22T10:42:25.579Z,7.85
2022-09-22T10:45:49.644Z,11.27
2022-09-22T10:48:58.438Z,8.25
2022-09-22T10:52:30.155Z,10.90
2022-09-22T10:56:00.273Z,9.57
2022-09-22T10:59:28.895Z,10.00
2022-09-22T11:03:12.597Z,6.05
2022-09-22T11:07:06.677Z,9.25
2022-09-22T11:13:53.213Z,7.78
2022-09-22T11:17:18.107Z,6.90
2022-09-22T11:20:45.980Z,6.72
2022-09-22T11:24:11.146Z,9.65
2022-09-22T11:27:21.393Z,8.13
2022-09-22T11:30:59.106Z,6.85
2022-09-22T11:35:28.858Z,10.18
2022-09-22T11:45:39.175Z,7.97
2022-09-22T11:52:26.110Z,6.97
2022-09-22T11:55:45.485Z,6.13
2022-09-22T11:58:51.201Z,6.90
2022-09-22T12:01:42.033Z,5.95
2022-09-22T12:04:29.110Z,5.40
2022-09-22T12:07:02.225Z,6.22
2022-09-22T12:09:41.271Z,6.75
2022-09-22T12:12:19.607Z,5.85
2022-09-22T12:15:03.376Z,4.03
2022-09-22T12:17:49.012Z,4.72
2022-09-22T12:20:39.301Z,4.50
2022-09-22T12:23:38.903Z,3.35
2022-09-22T12:26:12.504Z,9.57
2022-09-22T12:28:45.745Z,4.15
2022-09-22T12:31:17.457Z,9.68
2022-09-22T12:33:55.592Z,4.00
2022-09-22T12:36:34.198Z,4.65
2022-09-22T12:39:18.338Z,5.90
2022-09-22T12:41:50.452Z,3.90
2022-09-22T12:44:26.227Z,3.38
2022-09-22T12:47:04.985Z,4.35
2022-09-22T12:49:50.088Z,3.75
2022-09-22T12:53:05.265Z,5.70
2022-09-22T12:55:39.557Z,4.80
2022-09-22T12:58:42.648Z,5.88
2022-09-22T13:01:49.972Z,5.32
2022-09-22T13:04:22.942Z,6.15
2022-09-22T13:07:02.942Z,7.03
2022-09-22T13:09:34.259Z,7.70
2022-09-22T13:12:38.354Z,6.85
2022-09-22T13:15:24.918Z,4.38
2022-09-22T13:17:54.359Z,6.10
2022-09-22T13:20:33.217Z,4.88
2022-09-22T13:23:14.815Z,3.75
2022-09-22T13:25:44.776Z,12.23
2022-09-22T13:28:21.454Z,5.15
2022-09-22T13:31:06.096Z,4.93
2022-09-22T13:33:38.540Z,5.55
2022-09-22T13:36:11.771Z,5.45
2022-09-22T13:38:46.416Z,7.95
2022-09-22T13:41:21.660Z,4.32
2022-09-22T13:46:43.717Z,6.65
2022-09-22T13:49:20.361Z,7.35
2022-09-22T13:51:56.275Z,3.50
2022-09-22T13:54:32.574Z,4.38
2022-09-22T13:57:04.054Z,3.90
2022-09-22T13:59:42.447Z,5.38
2022-09-22T14:02:16.683Z,4.22
2022-09-22T14:04:54.557Z,4.80
2022-09-22T14:07:26.753Z,7.32
2022-09-22T14:10:01.599Z,3.20
2022-09-22T14:12:31.616Z,5.20
2022-09-22T14:15:34.482Z,3.28
2022-09-22T14:18:04.167Z,4.25
2022-09-22T14:20:34.602Z,5.72
2022-09-22T14:23:03.574Z,7.72
2022-09-22T14:25:36.771Z,5.97
2022-09-22T14:28:06.319Z,3.25
2022-09-22T14:30:38.674Z,5.03
2022-09-22T14:33:08.202Z,5.88
2022-09-22T14:35:40.352Z,3.17
2022-09-22T14:38:16.842Z,6.47
2022-09-22T14:40:58.991Z,3.45
2022-09-22T14:43:42.534Z,6.22
2022-09-22T14:46:34.247Z,2.75
2022-09-22T14:49:41.068Z,4.35
2022-09-22T14:52:28.908Z,2.67
2022-09-22T14:55:04.062Z,5.80
2022-09-22T15:00:22.663Z,3.75
2022-09-22T15:02:55.683Z,7.63
2022-09-22T15:05:32.558Z,3.42
2022-09-22T15:08:07.090Z,6.30
2022-09-22T15:10:37.601Z,3.60
2022-09-22T15:13:31.709Z,4.25
2022-09-22T15:16:04.353Z,4.55
2022-09-22T15:18:35.184Z,3.97
2022-09-22T15:21:12.521Z,5.10
2022-09-22T15:23:48.214Z,4.18
2022-09-22T15:26:24.099Z,3.13
2022-09-22T15:29:01.790Z,3.17
2022-09-22T15:31:32.622Z,4.32
2022-09-22T15:34:03.146Z,4.22
2022-09-22T15:36:33.920Z,6.43
2022-09-22T15:39:10.535Z,3.97
2022-09-22T15:41:39.150Z,3.95
2022-09-22T15:44:11.803Z,5.25
2022-09-22T15:46:41.840Z,4.68
2022-09-22T15:49:21.888Z,2.80
2022-09-22T15:51:55.490Z,3.85
2022-09-22T15:54:26.633Z,4.10
2022-09-22T15:56:59.514Z,6.03
2022-09-22T15:59:35.166Z,6.53
2022-09-22T16:02:09.762Z,3.97
2022-09-22T16:04:39.765Z,4.50
2022-09-22T16:07:13.813Z,4.45
2022-09-22T16:09:43.218Z,4.72
2022-09-22T16:12:15.759Z,4.50
2022-09-22T16:14:47.839Z,2.83
2022-09-22T16:17:19.092Z,4.63
2022-09-22T16:19:50.740Z,11.10
2022-09-22T16:22:20.121Z,3.17
2022-09-22T16:24:48.930Z,7.22
2022-09-22T16:27:17.723Z,4.80
2022-09-22T16:29:48.698Z,7.53
2022-09-22T16:32:18.982Z,6.00
2022-09-22T16:34:48.668Z,6.25
2022-09-22T16:37:17.977Z,3.95
2022-09-22T16:39:48.658Z,8.32
2022-09-22T16:42:22.860Z,5.57
2022-09-22T16:45:03.937Z,3.83
2022-09-22T16:47:32.646Z,6.40
2022-09-22T16:50:01.570Z,6.28
2022-09-22T16:52:32.306Z,3.85
2022-09-22T16:55:08.319Z,3.08
2022-09-22T16:57:37.072Z,5.03
2022-09-22T17:00:13.815Z,4.00
2022-09-22T17:02:46.765Z,3.67
2022-09-22T17:05:15.970Z,4.07
2022-09-22T17:07:47.565Z,2.50
2022-09-22T17:10:16.945Z,5.22
2022-09-22T17:12:46.595Z,4.57
2022-09-22T17:15:18.626Z,2.13
2022-09-22T17:17:49.041Z,4.40
2022-09-22T17:20:17.701Z,5.50
2022-09-22T17:22:47.032Z,5.88
2022-09-22T17:25:18.227Z,4.97
2022-09-22T17:27:50.259Z,5.72
2022-09-22T17:30:20.460Z,3.95
2022-09-22T17:32:53.250Z,3.53
2022-09-22T17:35:23.353Z,8.32
2022-09-22T17:37:53.335Z,3.95
2022-09-22T17:40:22.095Z,10.07
2022-09-22T17:42:51.532Z,5.45
2022-09-22T17:45:22.216Z,4.40
2022-09-22T17:48:08.649Z,4.43
2022-09-22T17:50:54.928Z,6.28
2022-09-22T17:53:42.256Z,4.38
2022-09-22T17:56:13.971Z,9.00
2022-09-22T17:58:42.866Z,8.43
2022-09-22T18:01:13.011Z,6.78
2022-09-22T18:03:45.245Z,8.57
2022-09-22T18:06:15.997Z,8.02
2022-09-22T18:08:45.372Z,11.23
2022-09-22T18:11:14.220Z,5.47
2022-09-22T18:13:46.793Z,4.78
2022-09-22T18:16:37.470Z,11.40
2022-09-22T18:19:13.195Z,8.05
2022-09-22T18:21:47.352Z,8.15
2022-09-22T18:24:20.584Z,12.13
2022-09-22T18:27:02.323Z,6.22
2022-09-22T18:29:36.238Z,4.90
2022-09-22T18:32:13.870Z,5.60
2022-09-22T18:34:48.323Z,5.35
2022-09-22T18:37:23.188Z,5.13
2022-09-22T18:39:53.458Z,13.63
2022-09-22T18:42:31.105Z,8.10
2022-09-22T18:45:01.411Z,5.57
2022-09-22T18:47:43.944Z,5.45
2022-09-22T18:50:17.518Z,5.80
2022-09-22T18:52:49.156Z,8.07
2022-09-22T18:55:32.988Z,6.75
2022-09-22T18:58:05.193Z,13.10
2022-09-22T19:00:41.822Z,6.20
2022-09-22T19:03:23.143Z,8.35
2022-09-22T19:06:19.888Z,9.20
2022-09-22T19:08:57.375Z,6.63
2022-09-22T19:11:36.251Z,8.02
2022-09-22T19:14:06.685Z,8.63
2022-09-22T19:16:53.590Z,5.38
2022-09-22T19:19:46.088Z,5.63
2022-09-22T19:22:20.099Z,5.75
2022-09-22T19:24:54.051Z,7.25
2022-09-22T19:27:29.808Z,10.52
2022-09-22T19:30:07.694Z,8.68
2022-09-22T19:32:42.955Z,26.08
2022-09-22T19:35:16.018Z,6.28
2022-09-22T19:37:58.360Z,9.65
2022-09-22T19:40:53.968Z,6.32
2022-09-22T19:43:30.416Z,11.27
2022-09-22T19:46:04.766Z,10.40
2022-09-22T19:48:34.858Z,7.53
2022-09-22T19:51:10.494Z,8.20
2022-09-22T19:53:39.933Z,9.60
2022-09-22T19:56:12.527Z,7.75
2022-09-22T19:58:46.093Z,13.57
2022-09-22T20:01:35.811Z,9.50
2022-09-22T20:04:12.122Z,12.00
2022-09-22T20:06:48.301Z,9.60
2022-09-22T20:09:32.783Z,8.65
2022-09-22T20:12:12.099Z,10.13
2022-09-22T20:14:46.924Z,11.93
2022-09-22T20:19:57.481Z,7.25
2022-09-22T20:22:37.952Z,13.68
2022-09-22T20:25:12.116Z,11.15
2022-09-22T20:27:42.624Z,8.30
2022-09-22T20:30:16.297Z,7.45
2022-09-22T20:32:46.558Z,14.27
2022-09-22T20:35:21.628Z,13.13
2022-09-22T20:37:58.268Z,11.68
2022-09-22T20:40:27.277Z,11.93
2022-09-22T20:42:56.832Z,9.25
2022-09-22T20:45:26.543Z,12.15
2022-09-22T20:47:56.492Z,13.95
2022-09-22T20:50:26.407Z,10.73
2022-09-22T20:52:57.573Z,11.18
2022-09-22T20:55:27.293Z,14.63
2022-09-22T20:57:56.187Z,14.80
2022-09-22T21:00:27.048Z,17.08
2022-09-22T21:03:00.462Z,14.98
2022-09-22T21:05:29.930Z,12.05
2022-09-22T21:08:13.781Z,13.43
2022-09-22T21:10:43.123Z,13.98
2022-09-22T21:13:13.948Z,14.32
2022-09-22T21:15:43.273Z,12.85
2022-09-22T21:18:12.965Z,18.50
2022-09-22T21:20:42.713Z,13.13
2022-09-22T21:23:14.231Z,13.70
2022-09-22T21:25:57.207Z,16.40
2022-09-22T21:28:26.215Z,19.45
2022-09-22T21:30:59.955Z,15.82
2022-09-22T21:33:30.087Z,18.35
2022-09-22T21:36:05.690Z,17.15
2022-09-22T21:38:40.070Z,22.35
2022-09-22T21:41:16.077Z,14.38
2022-09-22T21:43:46.357Z,17.13
2022-09-22T21:46:19.276Z,21.65
2022-09-22T21:48:50.780Z,18.33
2022-09-22T21:51:22.364Z,16.63
2022-09-22T21:53:55.761Z,19.35
2022-09-22T21:56:26.179Z,22.17
2022-09-22T21:58:56.811Z,19.30
2022-09-22T22:01:28.597Z,21.60
2022-09-22T22:03:59.820Z,27.33
2022-09-22T22:06:33.854Z,17.08
2022-09-22T22:09:07.829Z,20.50
2022-09-22T22:11:39.653Z,19.38
2022-09-22T22:14:10.610Z,21.20
2022-09-22T22:16:43.169Z,24.60
2022-09-22T22:19:14.419Z,23.45
2022-09-22T22:21:44.536Z,26.95
2022-09-22T22:24:28.574Z,26.08
2022-09-22T22:27:01.106Z,23.55
2022-09-22T22:29:32.120Z,23.70
2022-09-22T22:32:00.690Z,27.10
2022-09-22T22:34:30.323Z,25.02
2022-09-22T22:37:00.624Z,34.08
2022-09-22T22:39:32.403Z,23.83
2022-09-22T22:42:00.771Z,27.58
2022-09-22T22:44:29.180Z,26.13
2022-09-22T22:46:58.436Z,25.13
2022-09-22T22:49:28.276Z,29.85
2022-09-22T22:51:57.291Z,25.77
2022-09-22T22:54:26.075Z,26.98
2022-09-22T22:56:56.929Z,25.20
2022-09-22T22:59:25.225Z,36.28
2022-09-22T23:01:56.526Z,27.77
2022-09-22T23:04:27.299Z,26.73
2022-09-22T23:06:58.374Z,27.10
2022-09-22T23:09:40.273Z,25.98
2022-09-22T23:12:10.654Z,28.63
2022-09-22T23:14:40.871Z,32.20
2022-09-22T23:17:09.601Z,39.35
2022-09-22T23:19:38.937Z,26.88
2022-09-22T23:22:08.059Z,30.67
2022-09-22T23:24:39.421Z,31.95
2022-09-22T23:27:13.264Z,33.38
2022-09-22T23:29:44.065Z,38.45
2022-09-22T23:32:12.854Z,32.22
2022-09-22T23:34:43.765Z,27.20
2022-09-22T23:37:13.436Z,27.13
2022-09-22T23:39:44.285Z,27.20
2022-09-22T23:42:16.304Z,25.52
2022-09-22T23:44:45.576Z,31.73
2022-09-22T23:47:18.045Z,34.25
2022-09-22T23:49:49.708Z,30.17
2022-09-22T23:52:18.621Z,25.67
2022-09-22T23:54:48.719Z,27.83
2022-09-22T23:57:19.135Z,25.60
2022-09-22T23:59:48.137Z,26.40
